createdAt,value
2019-03-21T11:49:18.878Z,3.05
2019-03-21T11:54:24.645Z,3.25
2019-03-21T11:59:50.417Z,3.63
2019-03-21T12:05:21.982Z,3.70
2019-03-21T12:10:58.474Z,3.40
2019-03-21T12:16:10.101Z,3.50
2019-03-21T12:21:21.474Z,3.60
2019-03-21T12:26:59.183Z,3.50
2019-03-21T12:32:31.214Z,3.30
2019-03-21T12:37:52.915Z,3.20
2019-03-21T12:43:41.119Z,3.17
2019-03-21T12:48:50.244Z,3.05
2019-03-21T12:54:01.532Z,3.15
2019-03-21T12:59:10.763Z,3.20
2019-03-21T13:04:15.658Z,3.30
2019-03-21T13:09:20.906Z,3.33
2019-03-21T13:14:26.790Z,3.10
2019-03-21T13:19:50.855Z,3.30
2019-03-21T13:30:38.923Z,3.30
2019-03-21T13:35:44.376Z,3.20
2019-03-21T13:41:09.009Z,3.70
2019-03-21T13:46:25.002Z,3.45
2019-03-21T13:51:38.091Z,3.40
2019-03-21T13:56:57.213Z,3.10
2019-03-21T14:02:02.296Z,3.60
2019-03-21T14:07:10.179Z,3.47
2019-03-21T14:12:17.548Z,3.10
2019-03-21T14:17:22.632Z,3.30
2019-03-21T14:22:31.205Z,3.50
2019-03-21T14:27:50.218Z,2.90
2019-03-21T14:32:59.002Z,3.58
2019-03-21T14:38:05.033Z,3.35
2019-03-21T14:43:10.242Z,3.42
2019-03-21T14:48:15.247Z,3.27
2019-03-21T14:53:28.782Z,3.50
2019-03-21T14:58:32.762Z,2.90
2019-03-21T15:03:51.954Z,3.10
2019-03-21T15:09:00.794Z,3.37
2019-03-21T15:14:06.134Z,3.35
2019-03-21T15:19:15.698Z,3.03
2019-03-21T15:24:21.147Z,3.00
2019-03-21T15:29:29.536Z,3.30
2019-03-21T15:34:49.628Z,3.80
2019-03-21T15:40:24.087Z,3.40
2019-03-21T15:45:33.640Z,3.50
2019-03-21T15:50:43.916Z,3.00
2019-03-21T15:56:06.035Z,3.30
2019-03-21T16:01:11.265Z,2.80
2019-03-21T16:06:19.741Z,3.10
2019-03-21T16:11:36.545Z,2.90
2019-03-21T16:16:43.690Z,3.50
2019-03-21T16:22:05.790Z,3.52
2019-03-21T16:27:54.560Z,3.20
2019-03-21T16:33:04.457Z,4.17
2019-03-21T16:38:10.397Z,5.40
2019-03-21T16:43:15.662Z,5.80
2019-03-21T16:48:25.601Z,6.08
2019-03-21T16:53:43.800Z,5.30
2019-03-21T16:59:00.984Z,6.20
2019-03-21T17:04:14.897Z,6.00
2019-03-21T17:09:27.473Z,5.80
2019-03-21T17:14:46.649Z,5.87
2019-03-21T17:19:54.284Z,4.40
2019-03-21T17:24:59.929Z,4.80
2019-03-21T17:30:06.249Z,4.87
2019-03-21T17:35:12.028Z,3.60
2019-03-21T17:40:22.061Z,3.70
2019-03-21T17:45:28.441Z,4.60
